To NAV CANADA Home Page Login to a new session Search on AWWS site Feedback and Comments Disclaimer Vers la page française équivalente Tips FAQ What's new on the site To the Forecasts and Observations / NOTAM section To "File a Flight Plan" website Publications and other links Update of the User's profile FIC Telephone Numbers My Weather Data Folder Route Weather Data Regional Weather Data Local Weather Data To the Forecasts and Observations / NOTAM section
Request Generated 02/09/2016 at 09:41:40 UTC . Weather information available at that time is displayed.

METAR/TAF

QUEBEC/JEAN LESAGE INTL/QC    

METAR CYQB 090900Z 05012G20KT 10SM -SHSN BKN025 OVC100 M08/M13 A2982
RMK SC6AC2 SLP103=
METAR CYQB 090800Z 05011G22KT 6SM -SHSN BKN026 OVC100 M08/M12 A2985
RMK SC6AC2 SLP115=
METAR CYQB 090700Z 06011G17KT 6SM -SHSN BKN027 OVC100 M07/M12 A2989
RMK SC6AC2 SLP128=

TAF AMD CYQB 090815Z 0908/1006 06012G22KT 6SM -SN SCT020 BKN050 TEMPO
0908/0910 2SM -SHSN BKN020 OVC050
FM091000 06012G22KT 2SM -SN BKN020 OVC050 TEMPO 0910/0912 6SM -SN
SCT020 OVC050
FM091200 07015G25KT 2SM -SN BLSN BKN015 OVC050
FM092000 07015G25KT 4SM -SN BKN020 OVC050
BECMG 0920/0922 06012KT
RMK NXT FCST BY 091200Z=
Your time UTC time
Weather data provided by Environment Canada and NAV CANADA